Terminal Aerodrome Forecast
Issued by NWS Charleston, SC

Home | Current Version | Previous Version | Text Only | Print | Product List | Glossary On
Versions: 1 2 3 4 5 6 7 8 9 10 11 12 13 14 15 16 17 18 19 20 21 22 23 24
000
FTUS42 KCHS 180500
TAFCHS
TAF
KCHS 180527Z 1806/1906 06006KT P6SM BKN250
     FM181000 03010G16KT P6SM SCT025 BKN040
     FM181400 03012G19KT P6SM SCT015 BKN035
      TEMPO 1820/1823 6SM -RA SCT010 BKN020
     FM182300 06013G21KT 4SM RA BR SCT008 OVC015=

USA.gov is the U.S. government's official web portal to all federal, state and local government web resources and services.